createdAt,value
2022-10-02T00:00:34.035Z,11.78
2022-10-02T00:02:51.248Z,11.78
2022-10-02T00:05:08.315Z,11.78
2022-10-02T00:07:25.323Z,11.82
2022-10-02T00:09:43.410Z,11.77
2022-10-02T00:12:00.699Z,11.76
2022-10-02T00:14:17.896Z,11.78
2022-10-02T00:16:35.498Z,11.81
2022-10-02T00:18:52.913Z,11.80
2022-10-02T00:21:09.948Z,11.79
2022-10-02T00:23:27.922Z,11.79
2022-10-02T00:25:45.123Z,11.79
2022-10-02T00:28:02.467Z,11.75
2022-10-02T00:30:19.522Z,11.74
2022-10-02T00:32:36.771Z,11.73
2022-10-02T00:34:54.253Z,11.69
2022-10-02T00:37:12.201Z,11.70
2022-10-02T00:39:29.052Z,11.69
2022-10-02T00:41:46.348Z,11.69
2022-10-02T00:44:03.357Z,11.69
2022-10-02T00:46:20.259Z,11.67
2022-10-02T00:48:38.340Z,11.67
2022-10-02T00:50:55.570Z,11.64
2022-10-02T00:53:12.541Z,11.66
2022-10-02T00:55:30.174Z,11.66
2022-10-02T00:57:47.149Z,11.64
2022-10-02T01:00:04.470Z,11.62
2022-10-02T01:02:22.710Z,11.62
2022-10-02T01:04:39.717Z,11.62
2022-10-02T01:06:56.957Z,11.61
2022-10-02T01:09:14.186Z,11.64
2022-10-02T01:11:31.147Z,11.63
2022-10-02T01:13:48.055Z,11.65
2022-10-02T01:16:04.976Z,11.66
2022-10-02T01:18:23.037Z,11.67
2022-10-02T01:20:40.261Z,11.75
2022-10-02T01:22:57.180Z,11.75
2022-10-02T01:25:15.152Z,11.76
2022-10-02T01:27:35.449Z,11.79
2022-10-02T01:29:56.144Z,11.80
2022-10-02T01:32:13.178Z,11.81
2022-10-02T01:34:30.490Z,11.82
2022-10-02T01:36:48.683Z,11.80
2022-10-02T01:39:05.673Z,11.82
2022-10-02T01:41:22.987Z,11.86
2022-10-02T01:43:40.006Z,11.87
2022-10-02T01:45:57.231Z,11.85
2022-10-02T01:48:14.230Z,11.86
2022-10-02T01:50:31.543Z,11.87
2022-10-02T01:52:48.775Z,11.89
2022-10-02T01:55:05.717Z,11.89
2022-10-02T01:57:22.639Z,11.90
2022-10-02T01:59:41.813Z,11.91
2022-10-02T02:01:58.850Z,11.90
2022-10-02T02:04:16.873Z,11.90
2022-10-02T02:06:34.372Z,11.91
2022-10-02T02:08:51.527Z,11.92
2022-10-02T02:11:10.847Z,11.91
2022-10-02T02:13:28.830Z,11.90
2022-10-02T02:15:46.017Z,11.92
2022-10-02T02:18:02.995Z,11.89
2022-10-02T02:20:21.326Z,11.89
2022-10-02T02:22:38.761Z,11.85
2022-10-02T02:24:55.931Z,11.87
2022-10-02T02:27:13.157Z,11.88
2022-10-02T02:29:30.130Z,11.87
2022-10-02T02:31:47.371Z,11.88
2022-10-02T02:34:04.744Z,11.88
2022-10-02T02:36:21.733Z,11.91
2022-10-02T02:38:39.966Z,11.92
2022-10-02T02:40:56.887Z,11.91
2022-10-02T02:43:14.089Z,11.93
2022-10-02T02:45:32.122Z,11.93
2022-10-02T02:47:49.853Z,11.95
2022-10-02T02:50:06.761Z,11.96
2022-10-02T02:52:25.035Z,11.96
2022-10-02T02:54:41.997Z,11.96
2022-10-02T02:56:59.265Z,11.93
2022-10-02T02:59:17.327Z,11.95
2022-10-02T03:01:34.606Z,11.96
2022-10-02T03:03:51.660Z,11.94
2022-10-02T03:06:08.624Z,11.94
2022-10-02T03:08:25.647Z,11.94
2022-10-02T03:10:43.903Z,12.00
2022-10-02T03:13:01.105Z,12.00
2022-10-02T03:15:18.131Z,11.98
2022-10-02T03:17:35.369Z,11.98
2022-10-02T03:19:52.800Z,11.99
2022-10-02T03:22:10.043Z,11.99
2022-10-02T03:24:27.022Z,12.00
2022-10-02T03:26:44.009Z,12.00
2022-10-02T03:29:01.073Z,12.00
2022-10-02T03:31:18.046Z,12.01
2022-10-02T03:33:35.108Z,12.01
2022-10-02T03:35:52.089Z,12.02
2022-10-02T03:38:09.127Z,12.03
2022-10-02T03:40:26.319Z,12.04
2022-10-02T03:42:43.309Z,12.02
2022-10-02T03:45:00.587Z,12.01
2022-10-02T03:47:17.818Z,12.01
2022-10-02T03:49:35.797Z,12.01
2022-10-02T03:51:53.011Z,12.02
2022-10-02T03:54:10.924Z,12.01
2022-10-02T03:56:27.895Z,12.00
2022-10-02T03:58:45.861Z,11.98
2022-10-02T04:01:03.077Z,11.98
2022-10-02T04:03:20.517Z,12.01
2022-10-02T04:05:37.516Z,11.98
2022-10-02T04:07:54.541Z,11.98
2022-10-02T04:10:12.786Z,11.95
2022-10-02T04:12:31.038Z,11.95
2022-10-02T04:14:47.940Z,11.92
2022-10-02T04:17:05.974Z,11.92
2022-10-02T04:19:23.162Z,11.95
2022-10-02T04:21:40.400Z,11.94
2022-10-02T04:23:57.401Z,11.93
2022-10-02T04:26:14.406Z,11.91
2022-10-02T04:28:31.710Z,11.93
2022-10-02T04:30:48.712Z,11.96
2022-10-02T04:33:06.924Z,11.92
2022-10-02T04:35:23.958Z,11.91
2022-10-02T04:37:41.944Z,11.90
2022-10-02T04:39:58.932Z,11.94
2022-10-02T04:42:16.008Z,11.91
2022-10-02T04:44:34.243Z,11.91
2022-10-02T04:46:52.200Z,11.93
2022-10-02T04:49:09.070Z,11.91
2022-10-02T04:51:27.341Z,11.89
2022-10-02T04:53:45.546Z,11.89
2022-10-02T04:56:02.485Z,11.90
2022-10-02T04:58:20.716Z,11.89
2022-10-02T05:00:37.957Z,11.91
2022-10-02T05:02:56.037Z,11.93
2022-10-02T05:05:13.300Z,11.91
2022-10-02T05:07:30.257Z,11.92
2022-10-02T05:09:47.523Z,11.94
2022-10-02T05:12:04.439Z,11.96
2022-10-02T05:14:21.477Z,11.96
2022-10-02T05:16:39.101Z,11.94
2022-10-02T05:18:58.817Z,11.96
2022-10-02T05:21:15.796Z,11.97
2022-10-02T05:23:32.835Z,11.98
2022-10-02T05:25:49.749Z,11.96
2022-10-02T05:28:06.719Z,12.00
2022-10-02T05:30:23.975Z,11.99
2022-10-02T05:32:40.965Z,11.98
2022-10-02T05:34:57.948Z,12.02
2022-10-02T05:37:14.980Z,12.02
2022-10-02T05:39:32.296Z,12.00
2022-10-02T05:41:49.508Z,12.01
2022-10-02T05:44:06.586Z,12.03
2022-10-02T05:46:24.562Z,12.04
2022-10-02T05:48:41.872Z,12.05
2022-10-02T05:50:59.106Z,12.08
2022-10-02T05:53:16.404Z,12.11
2022-10-02T05:55:33.266Z,12.15
2022-10-02T05:57:50.201Z,12.16
2022-10-02T06:00:07.434Z,12.15
2022-10-02T06:02:24.717Z,12.16
2022-10-02T06:04:41.691Z,12.17
2022-10-02T06:06:58.970Z,12.16
2022-10-02T06:09:19.859Z,12.16
2022-10-02T06:11:37.337Z,12.17
2022-10-02T06:13:54.226Z,12.16
2022-10-02T06:16:11.371Z,12.18
2022-10-02T06:18:29.395Z,12.19
2022-10-02T06:20:46.723Z,12.22
2022-10-02T06:23:04.048Z,12.23
2022-10-02T06:25:21.113Z,12.22
2022-10-02T06:27:38.478Z,12.23
2022-10-02T06:29:55.608Z,12.24
2022-10-02T06:32:12.512Z,12.27
2022-10-02T06:34:29.592Z,12.29
2022-10-02T06:36:46.617Z,12.30
2022-10-02T06:39:03.861Z,12.32
2022-10-02T06:41:21.752Z,12.33
2022-10-02T06:43:38.830Z,12.31
2022-10-02T06:45:55.840Z,12.32
2022-10-02T06:48:12.861Z,12.32
2022-10-02T06:50:30.099Z,12.32
2022-10-02T06:52:46.966Z,12.34
2022-10-02T06:55:03.978Z,12.34
2022-10-02T06:57:21.008Z,12.32
2022-10-02T06:59:37.944Z,12.32
2022-10-02T07:01:57.314Z,12.38
2022-10-02T07:04:14.516Z,12.42
2022-10-02T07:06:32.557Z,12.42
2022-10-02T07:08:49.439Z,12.41
2022-10-02T07:11:06.399Z,12.40
2022-10-02T07:13:24.699Z,12.42
2022-10-02T07:15:41.727Z,12.43
2022-10-02T07:17:59.052Z,12.43
2022-10-02T07:20:16.122Z,12.42
2022-10-02T07:22:44.449Z,12.42
2022-10-02T07:25:02.686Z,12.45
2022-10-02T07:27:19.992Z,12.44
2022-10-02T07:29:37.225Z,12.48
2022-10-02T07:31:54.506Z,12.50
2022-10-02T07:34:12.643Z,12.52
2022-10-02T07:36:29.648Z,12.52
2022-10-02T07:38:46.916Z,12.54
2022-10-02T07:41:04.004Z,12.54
2022-10-02T07:43:22.323Z,12.56
2022-10-02T07:45:39.603Z,12.57
2022-10-02T07:47:56.666Z,12.58
2022-10-02T07:50:14.864Z,12.62
2022-10-02T07:52:31.774Z,12.64
2022-10-02T07:54:48.741Z,12.67
2022-10-02T07:57:09.793Z,12.67
2022-10-02T07:59:27.287Z,12.66
2022-10-02T08:01:45.297Z,12.66
2022-10-02T08:04:02.452Z,12.66
2022-10-02T08:06:19.495Z,12.66
2022-10-02T08:08:37.456Z,12.67
2022-10-02T08:10:54.752Z,12.67
2022-10-02T08:13:11.665Z,12.69
2022-10-02T08:15:28.922Z,12.72
2022-10-02T08:17:46.261Z,12.74
2022-10-02T08:20:04.414Z,12.75
2022-10-02T08:22:23.823Z,12.76
2022-10-02T08:24:40.771Z,12.78
2022-10-02T08:26:57.806Z,12.84
2022-10-02T08:29:15.687Z,12.87
2022-10-02T08:31:33.115Z,12.89
2022-10-02T08:33:51.143Z,12.92
2022-10-02T08:36:09.566Z,12.93
2022-10-02T08:38:27.529Z,12.97
2022-10-02T08:40:44.516Z,12.99
2022-10-02T08:43:01.761Z,13.01
2022-10-02T08:45:19.787Z,13.03
2022-10-02T08:47:37.030Z,13.04
2022-10-02T08:49:54.257Z,13.06
2022-10-02T08:52:11.747Z,13.09
2022-10-02T08:54:29.978Z,13.12
2022-10-02T08:56:47.322Z,13.10
2022-10-02T08:59:04.578Z,13.11
2022-10-02T09:01:21.623Z,13.10
2022-10-02T09:03:40.008Z,13.09
2022-10-02T09:05:56.958Z,13.10
2022-10-02T09:08:14.181Z,13.10
2022-10-02T09:10:31.235Z,13.10
2022-10-02T09:12:49.317Z,13.13
2022-10-02T09:15:07.570Z,13.14
2022-10-02T09:17:24.495Z,13.13
2022-10-02T09:19:42.735Z,13.14
2022-10-02T09:21:59.664Z,13.16
2022-10-02T09:24:16.856Z,13.22
2022-10-02T09:26:35.362Z,13.22
2022-10-02T09:28:53.819Z,13.23
2022-10-02T09:31:10.799Z,13.25
2022-10-02T09:33:28.888Z,13.25
2022-10-02T09:35:45.822Z,13.26
2022-10-02T09:38:02.722Z,13.26
2022-10-02T09:40:20.801Z,13.27
2022-10-02T09:42:39.094Z,13.27
2022-10-02T09:44:59.183Z,13.28
2022-10-02T09:47:18.365Z,13.29
2022-10-02T09:49:35.304Z,13.31
2022-10-02T09:51:52.295Z,13.30
2022-10-02T09:54:09.252Z,13.33
2022-10-02T09:56:26.130Z,13.37
2022-10-02T09:58:43.452Z,13.39
2022-10-02T10:01:00.369Z,13.44
2022-10-02T10:03:17.617Z,13.49
2022-10-02T10:05:34.483Z,13.52
2022-10-02T10:07:51.752Z,13.56
2022-10-02T10:10:09.783Z,13.58
2022-10-02T10:12:27.001Z,13.62
2022-10-02T10:14:46.697Z,13.67
2022-10-02T10:17:03.883Z,13.71
2022-10-02T10:19:21.179Z,13.74
2022-10-02T10:21:38.532Z,13.81
2022-10-02T10:23:58.252Z,13.84
2022-10-02T10:26:15.482Z,13.91
2022-10-02T10:28:32.435Z,13.96
2022-10-02T10:30:49.714Z,13.99
2022-10-02T10:33:06.662Z,14.03
2022-10-02T10:35:23.605Z,14.04
2022-10-02T10:37:41.891Z,14.04
2022-10-02T10:39:58.904Z,14.03
2022-10-02T10:42:17.157Z,14.01
2022-10-02T10:44:34.402Z,14.00
2022-10-02T10:46:52.802Z,13.99
2022-10-02T10:49:10.069Z,13.99
2022-10-02T10:51:27.272Z,14.00
2022-10-02T10:53:45.234Z,14.01
2022-10-02T10:56:03.457Z,14.00
2022-10-02T10:58:20.322Z,14.01
2022-10-02T11:00:37.653Z,14.01
2022-10-02T11:02:54.993Z,14.01
2022-10-02T11:05:12.079Z,14.00
2022-10-02T11:07:29.053Z,13.99
2022-10-02T11:09:46.252Z,13.98
2022-10-02T11:12:07.525Z,13.97
2022-10-02T11:14:26.904Z,13.97
2022-10-02T11:16:43.965Z,13.97
2022-10-02T11:19:01.226Z,13.99
2022-10-02T11:21:20.687Z,13.99
2022-10-02T11:23:38.152Z,14.00
2022-10-02T11:25:55.392Z,14.03
2022-10-02T11:28:12.428Z,14.04
2022-10-02T11:30:29.733Z,14.02
2022-10-02T11:32:48.992Z,14.03
2022-10-02T11:35:06.277Z,14.04
2022-10-02T11:37:25.408Z,14.06
2022-10-02T11:39:47.462Z,14.09
2022-10-02T11:42:04.967Z,14.09
2022-10-02T11:44:22.370Z,14.10
2022-10-02T11:46:41.248Z,14.09
2022-10-02T11:48:58.582Z,14.07
2022-10-02T11:51:15.939Z,14.04
2022-10-02T11:53:35.564Z,14.12
2022-10-02T11:55:53.256Z,14.09
2022-10-02T11:58:10.199Z,14.10
2022-10-02T12:00:28.578Z,14.11
2022-10-02T12:02:46.058Z,14.13
2022-10-02T12:05:03.965Z,14.15
2022-10-02T12:07:22.196Z,14.14
2022-10-02T12:09:39.348Z,14.13
2022-10-02T12:11:56.609Z,14.13
2022-10-02T12:14:13.691Z,14.17
2022-10-02T12:16:30.819Z,14.20
2022-10-02T12:18:48.305Z,14.25
2022-10-02T12:21:05.533Z,14.29
2022-10-02T12:23:22.565Z,14.34
2022-10-02T12:25:39.831Z,14.41
2022-10-02T12:27:57.056Z,14.51
2022-10-02T12:30:15.686Z,14.51
2022-10-02T12:32:32.604Z,14.54
2022-10-02T12:34:50.584Z,14.55
2022-10-02T12:37:07.447Z,14.56
2022-10-02T12:39:24.352Z,14.51
2022-10-02T12:41:44.574Z,14.50
2022-10-02T12:44:01.486Z,14.47
2022-10-02T12:46:19.467Z,14.49
2022-10-02T12:48:36.504Z,14.52
2022-10-02T12:50:53.618Z,14.55
2022-10-02T12:53:10.540Z,14.62
2022-10-02T12:55:27.473Z,14.64
2022-10-02T12:57:44.400Z,14.64
2022-10-02T13:00:01.621Z,14.62
2022-10-02T13:02:19.077Z,14.65
2022-10-02T13:04:36.387Z,14.67
2022-10-02T13:06:53.487Z,14.68
2022-10-02T13:09:10.749Z,14.72
2022-10-02T13:11:28.046Z,14.70
2022-10-02T13:13:45.188Z,14.68
2022-10-02T13:16:02.158Z,14.67
2022-10-02T13:18:19.212Z,14.67
2022-10-02T13:20:36.043Z,14.68
2022-10-02T13:22:53.113Z,14.63
2022-10-02T13:25:10.039Z,14.63
2022-10-02T13:27:31.272Z,14.63
2022-10-02T13:29:48.842Z,14.63
2022-10-02T13:32:06.203Z,14.66
2022-10-02T13:34:23.496Z,14.67
2022-10-02T13:36:40.591Z,14.70
2022-10-02T13:38:57.617Z,14.73
2022-10-02T13:41:14.656Z,14.75
2022-10-02T13:43:31.734Z,14.80
2022-10-02T13:45:48.738Z,14.83
2022-10-02T13:48:05.801Z,14.85
2022-10-02T13:50:23.377Z,14.88
2022-10-02T13:52:42.997Z,14.89
2022-10-02T13:55:00.440Z,14.88
2022-10-02T13:57:17.716Z,14.87
2022-10-02T13:59:34.786Z,14.83
2022-10-02T14:01:52.162Z,14.83
2022-10-02T14:04:09.200Z,14.80
2022-10-02T14:06:26.526Z,14.78
2022-10-02T14:08:44.312Z,14.80
2022-10-02T14:11:01.531Z,14.82
2022-10-02T14:13:19.495Z,14.82
2022-10-02T14:15:36.875Z,14.79
2022-10-02T14:17:54.910Z,14.75
2022-10-02T14:20:12.256Z,14.74
2022-10-02T14:22:29.306Z,14.68
2022-10-02T14:24:47.465Z,14.68
2022-10-02T14:27:05.722Z,14.64
2022-10-02T14:29:23.358Z,14.62
2022-10-02T14:31:41.633Z,14.59
2022-10-02T14:33:58.939Z,14.61
2022-10-02T14:36:16.226Z,14.56
2022-10-02T14:38:33.587Z,14.53
2022-10-02T14:40:50.624Z,14.50
2022-10-02T14:43:07.591Z,14.47
2022-10-02T14:45:24.668Z,14.44
2022-10-02T14:47:41.778Z,14.44
2022-10-02T14:49:59.821Z,14.38
2022-10-02T14:52:17.139Z,14.35
2022-10-02T14:54:34.055Z,14.34
2022-10-02T14:56:52.106Z,14.34
2022-10-02T14:59:09.414Z,14.28
2022-10-02T15:01:27.480Z,14.29
2022-10-02T15:03:44.891Z,14.26
2022-10-02T15:06:01.972Z,14.23
2022-10-02T15:08:19.018Z,14.21
2022-10-02T15:10:36.066Z,14.18
2022-10-02T15:12:53.128Z,14.16
2022-10-02T15:15:10.443Z,14.14
2022-10-02T15:17:27.490Z,14.11
2022-10-02T15:19:47.724Z,14.08
2022-10-02T15:22:07.129Z,14.06
2022-10-02T15:24:24.474Z,14.01
2022-10-02T15:26:41.821Z,13.98
2022-10-02T15:28:59.671Z,13.98
2022-10-02T15:31:16.908Z,13.98
2022-10-02T15:33:33.844Z,13.95
2022-10-02T15:35:50.895Z,13.94
2022-10-02T15:38:07.916Z,13.92
2022-10-02T15:40:25.148Z,13.92
2022-10-02T15:42:42.187Z,13.90
2022-10-02T15:44:59.116Z,13.89
2022-10-02T15:47:16.059Z,13.88
2022-10-02T15:49:33.136Z,13.87
2022-10-02T15:51:50.370Z,13.85
2022-10-02T15:54:07.706Z,13.84
2022-10-02T15:56:24.804Z,13.82
2022-10-02T15:58:44.100Z,13.79
2022-10-02T16:01:01.297Z,13.76
2022-10-02T16:03:18.787Z,13.79
2022-10-02T16:05:36.095Z,13.72
2022-10-02T16:07:54.656Z,13.69
2022-10-02T16:10:14.422Z,13.67
2022-10-02T16:12:31.310Z,13.65
2022-10-02T16:14:48.301Z,13.62
2022-10-02T16:17:05.558Z,13.59
2022-10-02T16:19:23.899Z,13.61
2022-10-02T16:21:40.841Z,13.57
2022-10-02T16:23:58.238Z,13.59
2022-10-02T16:26:15.184Z,13.57
2022-10-02T16:28:32.267Z,13.54
2022-10-02T16:30:50.353Z,13.52
2022-10-02T16:33:07.401Z,13.51
2022-10-02T16:35:27.206Z,13.49
2022-10-02T16:37:44.434Z,13.43
2022-10-02T16:40:01.458Z,13.42
2022-10-02T16:42:18.740Z,13.37
2022-10-02T16:44:35.686Z,13.33
2022-10-02T16:46:52.697Z,13.28
2022-10-02T16:49:10.075Z,13.26
2022-10-02T16:51:27.326Z,13.23
2022-10-02T16:53:44.204Z,13.21
2022-10-02T16:56:01.336Z,13.18
2022-10-02T16:58:18.578Z,13.15
2022-10-02T17:00:35.835Z,13.15
2022-10-02T17:02:53.351Z,13.11
2022-10-02T17:05:10.447Z,13.08
2022-10-02T17:07:27.449Z,13.08
2022-10-02T17:09:44.679Z,13.02
2022-10-02T17:12:03.145Z,12.95
2022-10-02T17:14:20.265Z,12.89
2022-10-02T17:16:40.202Z,12.84
2022-10-02T17:18:57.456Z,12.80
2022-10-02T17:21:14.417Z,12.75
2022-10-02T17:23:32.714Z,12.72
2022-10-02T17:25:49.712Z,12.63
2022-10-02T17:28:07.673Z,12.61
2022-10-02T17:30:24.974Z,12.55
2022-10-02T17:32:42.192Z,12.52
2022-10-02T17:35:00.422Z,12.50
2022-10-02T17:37:17.331Z,12.48
2022-10-02T17:39:34.322Z,12.46
2022-10-02T17:41:51.575Z,12.48
2022-10-02T17:44:08.886Z,12.48
2022-10-02T17:46:28.200Z,12.47
2022-10-02T17:48:45.409Z,12.51
2022-10-02T17:51:02.345Z,12.50
2022-10-02T17:53:19.588Z,12.52
2022-10-02T17:55:37.618Z,12.51
2022-10-02T17:57:54.855Z,12.49
2022-10-02T18:00:12.095Z,12.48
2022-10-02T18:02:29.351Z,12.46
2022-10-02T18:04:46.392Z,12.42
2022-10-02T18:07:04.396Z,12.41
2022-10-02T18:09:21.282Z,12.40
2022-10-02T18:11:38.338Z,12.41
2022-10-02T18:13:59.529Z,12.36
2022-10-02T18:16:16.988Z,12.38
2022-10-02T18:18:34.407Z,12.35
2022-10-02T18:20:51.656Z,12.33
2022-10-02T18:23:08.949Z,12.30
2022-10-02T18:25:26.217Z,12.22
2022-10-02T18:27:43.439Z,12.18
2022-10-02T18:30:00.265Z,12.18
2022-10-02T18:32:17.367Z,12.11
2022-10-02T18:34:38.189Z,12.13
2022-10-02T18:36:57.494Z,12.07
2022-10-02T18:39:14.778Z,12.00
2022-10-02T18:41:31.765Z,11.96
2022-10-02T18:43:49.078Z,11.94
2022-10-02T18:46:06.341Z,11.91
2022-10-02T18:48:23.299Z,11.83
2022-10-02T18:50:41.592Z,11.81
2022-10-02T18:52:58.608Z,11.75
2022-10-02T18:55:16.574Z,11.72
2022-10-02T18:57:33.608Z,11.71
2022-10-02T18:59:50.651Z,11.69
2022-10-02T19:02:07.802Z,11.63
2022-10-02T19:04:24.723Z,11.61
2022-10-02T19:06:41.591Z,11.55
2022-10-02T19:08:58.474Z,11.51
2022-10-02T19:11:15.491Z,11.45
2022-10-02T19:13:32.422Z,11.39
2022-10-02T19:15:49.620Z,11.35
2022-10-02T19:18:06.618Z,11.34
2022-10-02T19:20:24.646Z,11.27
2022-10-02T19:22:41.885Z,11.22
2022-10-02T19:24:59.100Z,11.18
2022-10-02T19:27:16.406Z,11.15
2022-10-02T19:29:34.378Z,11.17
2022-10-02T19:31:51.410Z,11.17
2022-10-02T19:34:08.474Z,11.11
2022-10-02T19:36:25.388Z,11.07
2022-10-02T19:38:42.435Z,11.06
2022-10-02T19:40:59.670Z,11.02
2022-10-02T19:43:17.643Z,10.99
2022-10-02T19:45:34.624Z,10.95
2022-10-02T19:47:51.665Z,10.93
2022-10-02T19:50:09.030Z,10.91
2022-10-02T19:52:26.349Z,10.95
2022-10-02T19:54:43.591Z,10.93
2022-10-02T19:57:00.622Z,10.85
2022-10-02T19:59:17.697Z,10.79
2022-10-02T20:01:35.010Z,10.76
2022-10-02T20:03:55.569Z,10.75
2022-10-02T20:06:13.779Z,10.72
2022-10-02T20:08:30.814Z,10.68
2022-10-02T20:10:48.072Z,10.66
2022-10-02T20:13:05.092Z,10.66
2022-10-02T20:15:22.166Z,10.65
2022-10-02T20:17:40.492Z,10.63
2022-10-02T20:19:57.518Z,10.65
2022-10-02T20:22:14.430Z,10.68
2022-10-02T20:24:32.491Z,10.67
2022-10-02T20:26:50.705Z,10.63
2022-10-02T20:29:08.023Z,10.61
2022-10-02T20:31:27.259Z,10.57
2022-10-02T20:33:44.213Z,10.51
2022-10-02T20:36:01.211Z,10.57
2022-10-02T20:38:18.434Z,10.48
2022-10-02T20:40:35.660Z,10.48
2022-10-02T20:42:52.922Z,10.41
2022-10-02T20:45:09.848Z,10.42
2022-10-02T20:47:27.086Z,10.37
2022-10-02T20:49:44.162Z,10.29
2022-10-02T20:52:01.135Z,10.29
2022-10-02T20:54:19.336Z,10.24
2022-10-02T20:56:36.299Z,10.22
2022-10-02T20:58:53.265Z,10.17
2022-10-02T21:01:11.385Z,10.15
2022-10-02T21:03:29.175Z,10.14
2022-10-02T21:05:46.392Z,10.16
2022-10-02T21:08:03.703Z,10.15
2022-10-02T21:10:20.678Z,10.17
2022-10-02T21:12:38.918Z,10.15
2022-10-02T21:14:57.166Z,10.15
2022-10-02T21:17:14.288Z,10.15
2022-10-02T21:19:31.636Z,10.15
2022-10-02T21:21:52.791Z,10.16
2022-10-02T21:24:10.797Z,10.21
2022-10-02T21:26:28.078Z,10.16
2022-10-02T21:28:45.370Z,10.16
2022-10-02T21:31:03.681Z,10.06
2022-10-02T21:33:20.722Z,10.01
2022-10-02T21:35:37.654Z,10.04
2022-10-02T21:37:54.614Z,10.04
2022-10-02T21:40:11.619Z,9.97
2022-10-02T21:42:28.844Z,9.92
2022-10-02T21:44:45.853Z,9.91
2022-10-02T21:47:03.157Z,9.85
2022-10-02T21:49:20.203Z,9.81
2022-10-02T21:51:37.705Z,9.81
2022-10-02T21:53:56.660Z,9.74
2022-10-02T21:56:13.943Z,9.72
2022-10-02T21:58:30.844Z,9.71
2022-10-02T22:00:47.798Z,9.75
2022-10-02T22:03:05.043Z,9.75
2022-10-02T22:05:22.307Z,9.71
2022-10-02T22:07:39.644Z,9.66
2022-10-02T22:09:56.631Z,9.66
2022-10-02T22:12:13.643Z,9.60
2022-10-02T22:14:30.835Z,9.57
2022-10-02T22:16:48.116Z,9.54
2022-10-02T22:19:05.052Z,9.54
2022-10-02T22:21:23.269Z,9.57
2022-10-02T22:23:40.522Z,9.59
2022-10-02T22:25:57.456Z,9.57
2022-10-02T22:28:14.596Z,9.53
2022-10-02T22:30:31.927Z,9.47
2022-10-02T22:32:48.980Z,9.47
2022-10-02T22:35:06.012Z,9.47
2022-10-02T22:37:23.289Z,9.45
2022-10-02T22:39:40.500Z,9.39
2022-10-02T22:41:57.526Z,9.39
2022-10-02T22:44:15.716Z,9.44
2022-10-02T22:46:32.885Z,9.46
2022-10-02T22:48:51.131Z,9.35
2022-10-02T22:51:08.348Z,9.36
2022-10-02T22:53:25.303Z,9.32
2022-10-02T22:55:42.539Z,9.31
2022-10-02T22:58:00.524Z,9.33
2022-10-02T23:00:17.504Z,9.34
2022-10-02T23:02:35.593Z,9.26
2022-10-02T23:04:52.548Z,9.20
2022-10-02T23:07:09.831Z,9.20
2022-10-02T23:09:26.841Z,9.13
2022-10-02T23:11:44.195Z,9.14
2022-10-02T23:14:02.225Z,9.08
2022-10-02T23:16:19.541Z,9.06
2022-10-02T23:18:36.448Z,9.03
2022-10-02T23:20:53.729Z,8.97
2022-10-02T23:23:12.478Z,8.98
2022-10-02T23:25:29.510Z,9.02
2022-10-02T23:27:47.207Z,9.00
2022-10-02T23:30:04.736Z,8.91
2022-10-02T23:32:21.864Z,8.92
2022-10-02T23:34:39.185Z,8.97
2022-10-02T23:36:56.366Z,8.89
2022-10-02T23:39:13.736Z,8.84
2022-10-02T23:41:30.706Z,8.82
2022-10-02T23:43:47.740Z,8.80
2022-10-02T23:46:05.087Z,8.79
2022-10-02T23:48:22.388Z,8.81
2022-10-02T23:50:40.336Z,8.77
2022-10-02T23:52:57.448Z,8.74
2022-10-02T23:55:15.708Z,8.78
2022-10-02T23:57:32.673Z,8.70
2022-10-02T23:59:50.600Z,8.67
